Terminal Aerodrome Forecast
Issued by NWS Bismarck, ND

Home | Current Version | Previous Version | Text Only | Print | Product List | Glossary On
Versions: 1 2 3 4 5 6 7 8 9 10 11 12 13 14 15 16 17 18
000
FTUS43 KBIS 281120
TAFBIS
TAF
KBIS 281120Z 2812/2912 30012KT P6SM FEW060 FEW110
     FM281800 31022G31KT P6SM SCT060 BKN110
     FM282000 32023G32KT P6SM VCSH FEW070 SCT110
     FM290300 33011KT P6SM FEW050 SCT090=

USA.gov is the U.S. government's official web portal to all federal, state and local government web resources and services.